Time;durP1;ratioP1;P1;durP2;ratioP2;P2;SDS_P1;SDS_P2;PMS_P1;PMS_P2;Temp;Humidity;BMP_temperature;BMP_pressure;BME280_temperature;BME280_humidity;BME280_pressure;Samples;Min_cycle;Max_cycle;Signal;HPM_P1;HPM_P2
2022/04/01 00:01:07;;;;;;;7.38;4.90;;;;;;;;;;5094748;28;20205;-83
2022/04/01 00:03:34;;;;;;;4.28;3.88;;;;;;;;;;5093841;28;20580;-83
2022/04/01 00:06:02;;;;;;;3.95;3.65;;;;;;;;;;5094158;28;20691;-82
2022/04/01 00:08:29;;;;;;;4.30;3.47;;;;;;;;;;5094629;28;20224;-83
2022/04/01 00:10:56;;;;;;;6.05;4.47;;;;;;;;;;5094487;28;20607;-84
2022/04/01 00:13:23;;;;;;;4.72;4.03;;;;;;;;;;5094706;28;20200;-84
2022/04/01 00:15:52;;;;;;;4.38;4.00;;;;;;;;;;5094682;28;20215;-84
2022/04/01 00:18:20;;;;;;;4.40;4.00;;;;;;;;;;5093955;28;20734;-83
2022/04/01 00:20:47;;;;;;;4.43;4.03;;;;;;;;;;5094077;28;20201;-82
2022/04/01 00:23:15;;;;;;;4.93;4.53;;;;;;;;;;5093923;28;20656;-83
2022/04/01 00:25:43;;;;;;;4.93;4.40;;;;;;;;;;5094188;28;20200;-82
2022/04/01 00:28:11;;;;;;;4.55;4.15;;;;;;;;;;5094117;28;20232;-82
2022/04/01 00:30:39;;;;;;;4.65;3.38;;;;;;;;;;5093785;28;20287;-84
2022/04/01 00:33:08;;;;;;;4.20;3.80;;;;;;;;;;5093695;28;20203;-83
2022/04/01 00:35:36;;;;;;;3.75;3.45;;;;;;;;;;5094288;28;20274;-82
2022/04/01 00:38:03;;;;;;;3.92;3.53;;;;;;;;;;5093747;28;20199;-82
2022/04/01 00:40:31;;;;;;;4.18;3.78;;;;;;;;;;5093979;28;20664;-83
2022/04/01 00:42:58;;;;;;;3.40;3.10;;;;;;;;;;5099115;28;20211;-85
2022/04/01 00:45:25;;;;;;;4.68;3.30;;;;;;;;;;5098702;28;20205;-82
2022/04/01 00:47:54;;;;;;;3.70;3.25;;;;;;;;;;5102795;28;20224;-82
2022/04/01 00:50:23;;;;;;;5.00;4.15;;;;;;;;;;5102616;28;20295;-82
2022/04/01 00:52:51;;;;;;;6.57;4.15;;;;;;;;;;5093553;28;20228;-83
2022/04/01 00:55:18;;;;;;;4.85;4.32;;;;;;;;;;5094084;28;20254;-84
2022/04/01 00:57:46;;;;;;;4.00;3.67;;;;;;;;;;5093806;28;20200;-83
2022/04/01 01:00:15;;;;;;;5.03;4.32;;;;;;;;;;5093644;28;20228;-83
2022/04/01 01:02:42;;;;;;;4.28;3.88;;;;;;;;;;5093705;28;20196;-83
2022/04/01 01:05:10;;;;;;;4.85;3.75;;;;;;;;;;5093138;28;20668;-83
2022/04/01 01:07:42;;;;;;;4.97;4.28;;;;;;;;;;5093411;28;20772;-83
2022/04/01 01:10:13;;;;;;;5.88;4.50;;;;;;;;;;5093169;28;20235;-83
2022/04/01 01:12:41;;;;;;;4.57;3.63;;;;;;;;;;5093330;28;20200;-83
2022/04/01 01:15:10;;;;;;;4.68;4.22;;;;;;;;;;5093514;28;20200;-83
2022/04/01 01:17:39;;;;;;;4.85;3.83;;;;;;;;;;5093371;28;20208;-83
2022/04/01 01:20:12;;;;;;;3.63;3.20;;;;;;;;;;5093336;28;20266;-82
2022/04/01 01:22:41;;;;;;;5.72;3.90;;;;;;;;;;5093199;28;20211;-82
2022/04/01 01:25:13;;;;;;;4.15;3.78;;;;;;;;;;5093406;28;20204;-83
2022/04/01 01:27:40;;;;;;;5.20;4.55;;;;;;;;;;5092965;28;20220;-83
2022/04/01 01:30:09;;;;;;;4.50;4.10;;;;;;;;;;5092703;28;20251;-84
2022/04/01 01:32:37;;;;;;;4.38;3.97;;;;;;;;;;5092758;28;20203;-82
2022/04/01 01:35:08;;;;;;;3.15;2.95;;;;;;;;;;5092602;28;20200;-83
2022/04/01 01:37:35;;;;;;;3.08;2.88;;;;;;;;;;5093376;28;20261;-82
2022/04/01 01:40:03;;;;;;;4.78;4.28;;;;;;;;;;5092636;28;20663;-83
2022/04/01 01:42:32;;;;;;;3.70;3.40;;;;;;;;;;5092603;28;20200;-83
2022/04/01 01:45:00;;;;;;;8.18;4.45;;;;;;;;;;5093081;28;20731;-83
2022/04/01 01:47:27;;;;;;;4.93;4.18;;;;;;;;;;5092746;28;20220;-82
2022/04/01 01:55:24;;;;;;;4.90;3.95;;;;;;;;;;5092955;28;20674;-83
2022/04/01 01:57:52;;;;;;;4.18;3.60;;;;;;;;;;5092466;28;20203;-82
2022/04/01 02:00:22;;;;;;;4.72;4.30;;;;;;;;;;5092761;28;20208;-84
2022/04/01 02:02:49;;;;;;;7.22;3.95;;;;;;;;;;5092554;28;20628;-82
2022/04/01 02:05:17;;;;;;;7.63;4.53;;;;;;;;;;5092913;28;20238;-84
2022/04/01 02:07:47;;;;;;;4.63;4.22;;;;;;;;;;5092265;28;20277;-84
2022/04/01 02:10:15;;;;;;;4.00;3.70;;;;;;;;;;5092750;28;20291;-83
2022/04/01 02:12:43;;;;;;;5.07;4.07;;;;;;;;;;5092630;28;20204;-84
2022/04/01 02:15:12;;;;;;;5.43;4.03;;;;;;;;;;5092569;28;20755;-83
2022/04/01 02:17:40;;;;;;;5.40;3.50;;;;;;;;;;5092026;28;20209;-83
2022/04/01 02:20:10;;;;;;;4.28;3.75;;;;;;;;;;5092377;28;20216;-83
2022/04/01 02:22:37;;;;;;;5.47;4.18;;;;;;;;;;5092073;28;20777;-82
2022/04/01 02:25:07;;;;;;;5.03;4.63;;;;;;;;;;5092611;28;20207;-83
2022/04/01 02:27:34;;;;;;;4.40;4.00;;;;;;;;;;5092585;28;20303;-84
2022/04/01 02:30:10;;;;;;;4.60;4.20;;;;;;;;;;5092118;28;20225;-83
2022/04/01 02:32:39;;;;;;;4.32;3.92;;;;;;;;;;5092937;28;20188;-82
2022/04/01 02:35:07;;;;;;;4.63;4.18;;;;;;;;;;5092878;28;20196;-82
2022/04/01 02:37:35;;;;;;;5.32;4.07;;;;;;;;;;5092225;28;20205;-84
2022/04/01 02:40:03;;;;;;;5.32;4.28;;;;;;;;;;5092629;28;20217;-82
2022/04/01 02:42:30;;;;;;;4.63;4.22;;;;;;;;;;5092114;28;20204;-83
2022/04/01 02:44:57;;;;;;;4.28;3.88;;;;;;;;;;5092607;28;20200;-84
2022/04/01 02:47:25;;;;;;;4.00;3.60;;;;;;;;;;5092964;28;20204;-82
2022/04/01 02:49:54;;;;;;;4.47;4.07;;;;;;;;;;5095892;28;20220;-83
2022/04/01 02:52:22;;;;;;;3.42;3.13;;;;;;;;;;5095690;28;20258;-82
2022/04/01 02:54:49;;;;;;;6.35;4.20;;;;;;;;;;5095264;28;20197;-83
2022/04/01 02:57:16;;;;;;;4.63;4.18;;;;;;;;;;5095024;28;20204;-82
2022/04/01 02:59:44;;;;;;;4.13;3.70;;;;;;;;;;5095570;28;20224;-83
2022/04/01 03:02:11;;;;;;;4.15;3.75;;;;;;;;;;5094791;28;20223;-84
2022/04/01 03:04:38;;;;;;;4.82;4.40;;;;;;;;;;5095333;28;20208;-82
2022/04/01 03:07:07;;;;;;;3.75;3.45;;;;;;;;;;5095323;28;20257;-82
2022/04/01 03:09:34;;;;;;;6.68;5.10;;;;;;;;;;5095193;28;20318;-82
2022/04/01 03:12:02;;;;;;;8.40;4.32;;;;;;;;;;5094990;28;20200;-83
2022/04/01 03:14:29;;;;;;;4.95;4.22;;;;;;;;;;5095070;28;20208;-82
2022/04/01 03:16:56;;;;;;;9.13;4.45;;;;;;;;;;5094963;28;20211;-83
2022/04/01 03:19:24;;;;;;;6.57;3.78;;;;;;;;;;5095684;28;20224;-83
2022/04/01 03:21:52;;;;;;;4.15;3.60;;;;;;;;;;5094778;28;20211;-83
2022/04/01 03:24:20;;;;;;;6.43;3.53;;;;;;;;;;5094952;28;20204;-82
2022/04/01 03:26:48;;;;;;;5.30;3.97;;;;;;;;;;5094464;28;20590;-82
2022/04/01 03:29:16;;;;;;;9.43;4.43;;;;;;;;;;5095083;28;20235;-81
2022/04/01 03:31:45;;;;;;;4.78;4.00;;;;;;;;;;5094792;28;20200;-83
2022/04/01 03:34:13;;;;;;;4.05;3.65;;;;;;;;;;5094803;28;20227;-83
2022/04/01 03:36:40;;;;;;;5.80;4.53;;;;;;;;;;5095087;28;20686;-83
2022/04/01 03:39:07;;;;;;;5.32;4.05;;;;;;;;;;5094886;28;20216;-82
2022/04/01 03:41:36;;;;;;;6.72;4.40;;;;;;;;;;5094326;28;20208;-84
2022/04/01 03:44:04;;;;;;;4.72;3.90;;;;;;;;;;5094247;28;20200;-82
2022/04/01 03:46:51;;;;;;;3.90;3.38;;;;;;;;;;5094714;28;20208;-82
2022/04/01 03:49:23;;;;;;;4.68;4.28;;;;;;;;;;5094365;28;20312;-83
2022/04/01 03:51:51;;;;;;;4.13;3.72;;;;;;;;;;5094700;28;20258;-82
2022/04/01 03:54:20;;;;;;;6.63;4.15;;;;;;;;;;5094428;28;20253;-83
2022/04/01 03:57:00;;;;;;;4.47;4.07;;;;;;;;;;5094228;28;20249;-82
2022/04/01 03:59:40;;;;;;;6.40;3.92;;;;;;;;;;5094133;28;20573;-83
2022/04/01 04:02:12;;;;;;;4.53;4.03;;;;;;;;;;5094638;28;20203;-82
2022/04/01 04:04:40;;;;;;;4.68;4.28;;;;;;;;;;5094019;28;20664;-83
2022/04/01 04:07:08;;;;;;;5.35;4.55;;;;;;;;;;5094438;28;20232;-81
2022/04/01 04:09:37;;;;;;;6.53;4.60;;;;;;;;;;5093959;28;20277;-82
2022/04/01 04:12:06;;;;;;;4.38;3.97;;;;;;;;;;5093867;28;20250;-83
2022/04/01 04:14:34;;;;;;;7.35;4.95;;;;;;;;;;5094526;28;20204;-82
2022/04/01 04:17:11;;;;;;;5.18;4.63;;;;;;;;;;5094280;28;20211;-82
2022/04/01 04:19:50;;;;;;;4.80;4.32;;;;;;;;;;5093545;28;20285;-83
2022/04/01 04:22:23;;;;;;;4.60;3.97;;;;;;;;;;5093701;28;20242;-82
2022/04/01 04:24:56;;;;;;;4.88;3.83;;;;;;;;;;5094809;28;20196;-83
2022/04/01 04:27:28;;;;;;;4.60;3.53;;;;;;;;;;5093966;28;20189;-83
2022/04/01 04:30:08;;;;;;;3.50;3.30;;;;;;;;;;5095417;28;20228;-81
2022/04/01 04:32:36;;;;;;;4.35;3.95;;;;;;;;;;5099305;28;20203;-81
2022/04/01 04:35:09;;;;;;;4.60;4.20;;;;;;;;;;5093864;28;20196;-82
2022/04/01 04:37:46;;;;;;;4.13;3.83;;;;;;;;;;5094105;28;20200;-82
2022/04/01 04:40:13;;;;;;;3.53;3.22;;;;;;;;;;5093747;28;20276;-83
2022/04/01 04:42:45;;;;;;;3.30;3.00;;;;;;;;;;5093687;28;20207;-82
2022/04/01 04:45:13;;;;;;;2.80;2.60;;;;;;;;;;5094047;28;20552;-82
2022/04/01 04:47:43;;;;;;;3.85;3.53;;;;;;;;;;5094169;28;20212;-83
2022/04/01 04:50:11;;;;;;;3.20;3.00;;;;;;;;;;5093124;28;20235;-82
2022/04/01 04:52:41;;;;;;;3.47;3.17;;;;;;;;;;5093508;28;20267;-84
2022/04/01 04:55:14;;;;;;;3.95;3.55;;;;;;;;;;5094042;28;20209;-83
2022/04/01 04:57:43;;;;;;;3.50;3.28;;;;;;;;;;5093410;28;20634;-83
2022/04/01 05:00:12;;;;;;;4.00;3.70;;;;;;;;;;5093742;28;20217;-83
2022/04/01 05:02:46;;;;;;;2.95;2.70;;;;;;;;;;5093604;28;20204;-82
2022/04/01 05:05:20;;;;;;;3.40;3.10;;;;;;;;;;5093491;28;20203;-84
2022/04/01 05:08:03;;;;;;;3.20;2.97;;;;;;;;;;5094358;28;20237;-78
2022/04/01 05:10:35;;;;;;;3.80;3.50;;;;;;;;;;5093259;28;20314;-77
2022/04/01 05:13:10;;;;;;;4.15;3.38;;;;;;;;;;5093654;28;20576;-77
2022/04/01 05:15:40;;;;;;;2.67;2.47;;;;;;;;;;5094143;28;20207;-80
2022/04/01 05:18:12;;;;;;;3.30;3.05;;;;;;;;;;5093266;28;20200;-78
2022/04/01 05:20:45;;;;;;;3.35;3.05;;;;;;;;;;5093097;28;20231;-78
2022/04/01 05:23:16;;;;;;;3.95;3.60;;;;;;;;;;5093454;28;20222;-78
2022/04/01 05:25:45;;;;;;;3.42;3.15;;;;;;;;;;5092946;28;20291;-78
2022/04/01 05:28:24;;;;;;;2.83;2.63;;;;;;;;;;5093444;28;20243;-78
2022/04/01 05:31:04;;;;;;;3.00;2.80;;;;;;;;;;5093128;28;20663;-78
2022/04/01 05:33:40;;;;;;;3.20;2.92;;;;;;;;;;5092707;28;20206;-78
2022/04/01 05:36:10;;;;;;;2.88;2.67;;;;;;;;;;5092165;28;20598;-78
2022/04/01 05:38:37;;;;;;;2.92;2.72;;;;;;;;;;5092061;28;20732;-75
2022/04/01 05:41:06;;;;;;;3.10;2.80;;;;;;;;;;5092118;28;20199;-76
2022/04/01 05:43:35;;;;;;;2.80;2.60;;;;;;;;;;5083965;28;20203;-76
2022/04/01 05:46:04;;;;;;;3.00;2.78;;;;;;;;;;5070399;28;20205;-76
2022/04/01 05:48:32;;;;;;;3.40;3.10;;;;;;;;;;5071333;28;20673;-76
2022/04/01 05:51:02;;;;;;;3.00;2.78;;;;;;;;;;5071357;28;20228;-76
2022/04/01 05:53:30;;;;;;;3.05;2.85;;;;;;;;;;5071385;28;20676;-76
2022/04/01 05:55:57;;;;;;;3.08;2.83;;;;;;;;;;5071452;28;20201;-76
2022/04/01 05:58:26;;;;;;;3.28;2.97;;;;;;;;;;5071198;28;20229;-76
2022/04/01 06:01:04;;;;;;;3.20;2.95;;;;;;;;;;5071474;28;20653;-76
2022/04/01 06:03:54;;;;;;;3.88;3.38;;;;;;;;;;5071366;28;20196;-76
2022/04/01 06:06:29;;;;;;;3.45;2.70;;;;;;;;;;5071518;28;20251;-75
2022/04/01 06:09:08;;;;;;;2.95;2.45;;;;;;;;;;5071101;28;20748;-76
2022/04/01 06:11:44;;;;;;;3.20;2.95;;;;;;;;;;5071516;28;20205;-77
2022/04/01 06:14:18;;;;;;;3.17;2.85;;;;;;;;;;5071246;28;20558;-76
2022/04/01 06:16:58;;;;;;;3.42;3.13;;;;;;;;;;5071719;28;20566;-76
2022/04/01 06:19:27;;;;;;;2.25;2.05;;;;;;;;;;5071263;28;20224;-77
2022/04/01 06:22:04;;;;;;;2.25;2.10;;;;;;;;;;5072538;28;20217;-77
2022/04/01 06:24:38;;;;;;;2.17;2.00;;;;;;;;;;5075250;28;20707;-77
2022/04/01 06:27:08;;;;;;;2.88;2.65;;;;;;;;;;5075282;28;20231;-77
2022/04/01 06:29:40;;;;;;;2.80;2.60;;;;;;;;;;5075053;28;20225;-77
2022/04/01 06:32:13;;;;;;;3.58;2.70;;;;;;;;;;5074881;28;20193;-77
2022/04/01 06:34:56;;;;;;;3.28;2.70;;;;;;;;;;5075205;28;20577;-77
2022/04/01 06:37:27;;;;;;;2.50;2.30;;;;;;;;;;5075293;28;20283;-77
2022/04/01 06:40:05;;;;;;;2.67;2.47;;;;;;;;;;5074814;28;20228;-77
2022/04/01 06:42:34;;;;;;;2.80;2.50;;;;;;;;;;5074893;28;20200;-78
2022/04/01 06:45:02;;;;;;;3.50;3.20;;;;;;;;;;5074719;28;20700;-77
2022/04/01 06:47:31;;;;;;;2.92;2.60;;;;;;;;;;5074984;28;20688;-79
2022/04/01 06:49:58;;;;;;;3.15;2.80;;;;;;;;;;5075007;28;20221;-77
2022/04/01 06:52:27;;;;;;;2.63;2.40;;;;;;;;;;5074968;28;20205;-77
2022/04/01 06:54:54;;;;;;;3.00;2.70;;;;;;;;;;5074679;28;20681;-77
2022/04/01 06:57:21;;;;;;;3.03;2.75;;;;;;;;;;5075274;28;20372;-77
2022/04/01 06:59:49;;;;;;;1.85;1.75;;;;;;;;;;5075051;28;20225;-77
2022/04/01 07:02:16;;;;;;;2.90;2.70;;;;;;;;;;5074761;28;20221;-77
2022/04/01 07:04:45;;;;;;;2.45;2.35;;;;;;;;;;5074980;28;20201;-77
2022/04/01 07:07:12;;;;;;;2.95;2.75;;;;;;;;;;5074481;28;20212;-77
2022/04/01 07:09:40;;;;;;;3.05;2.75;;;;;;;;;;5074376;28;20232;-77
2022/04/01 07:12:08;;;;;;;3.72;2.97;;;;;;;;;;5075050;28;20197;-77
2022/04/01 07:14:35;;;;;;;2.88;2.67;;;;;;;;;;5074695;28;20201;-77
2022/04/01 07:17:03;;;;;;;4.10;2.65;;;;;;;;;;5074822;28;20215;-77
2022/04/01 07:19:30;;;;;;;2.72;2.53;;;;;;;;;;5074164;28;20225;-78
2022/04/01 07:21:59;;;;;;;3.28;2.97;;;;;;;;;;5073984;28;20229;-77
2022/04/01 07:24:27;;;;;;;2.90;2.70;;;;;;;;;;5074780;28;20205;-77
2022/04/01 07:26:54;;;;;;;2.53;2.35;;;;;;;;;;5074546;28;20205;-81
2022/04/01 07:29:22;;;;;;;3.00;2.80;;;;;;;;;;5074645;28;20283;-77
2022/04/01 07:34:38;;;;;;;3.00;2.80;;;;;;;;;;5075017;28;20212;-77
2022/04/01 07:37:08;;;;;;;2.90;2.70;;;;;;;;;;5075102;28;20223;-76
2022/04/01 07:39:36;;;;;;;3.50;3.20;;;;;;;;;;5077320;28;20218;-77
2022/04/01 07:42:05;;;;;;;3.40;3.17;;;;;;;;;;5077465;28;20225;-77
2022/04/01 07:44:33;;;;;;;3.10;2.90;;;;;;;;;;5076090;28;20680;-76
2022/04/01 07:47:01;;;;;;;3.53;3.22;;;;;;;;;;5075804;28;20200;-77
2022/04/01 07:49:28;;;;;;;3.00;2.70;;;;;;;;;;5074890;28;20232;-77
2022/04/01 07:51:56;;;;;;;2.83;2.63;;;;;;;;;;5073272;28;20204;-77
2022/04/01 07:54:25;;;;;;;3.15;2.95;;;;;;;;;;5074437;28;20204;-77
2022/04/01 07:56:52;;;;;;;2.47;2.28;;;;;;;;;;5094181;28;20253;-77
2022/04/01 07:59:21;;;;;;;3.13;2.80;;;;;;;;;;5094426;28;20235;-77
2022/04/01 08:01:48;;;;;;;3.25;2.95;;;;;;;;;;5094106;28;20228;-77
2022/04/01 08:04:15;;;;;;;3.15;2.85;;;;;;;;;;5093809;28;20671;-77
2022/04/01 08:06:43;;;;;;;3.75;3.38;;;;;;;;;;5093323;28;20274;-76
2022/04/01 08:09:11;;;;;;;3.67;3.20;;;;;;;;;;5093794;28;20235;-77
2022/04/01 08:11:40;;;;;;;2.97;2.78;;;;;;;;;;5094524;28;20291;-77
2022/04/01 08:14:08;;;;;;;3.65;3.35;;;;;;;;;;5094487;28;20234;-77
2022/04/01 08:16:35;;;;;;;4.00;3.70;;;;;;;;;;5093266;28;20204;-77
2022/04/01 08:19:03;;;;;;;3.47;3.20;;;;;;;;;;5093182;28;20235;-77
2022/04/01 08:21:31;;;;;;;3.35;3.05;;;;;;;;;;5093390;28;20220;-76
2022/04/01 08:23:59;;;;;;;4.18;3.22;;;;;;;;;;5093308;28;20196;-77
2022/04/01 08:26:27;;;;;;;4.32;3.25;;;;;;;;;;5093180;28;20208;-77
2022/04/01 08:28:56;;;;;;;4.07;3.25;;;;;;;;;;5093487;28;20224;-76
2022/04/01 08:31:24;;;;;;;3.25;3.05;;;;;;;;;;5093228;28;20207;-76
2022/04/01 08:33:54;;;;;;;3.53;3.00;;;;;;;;;;5093014;28;20247;-76
2022/04/01 08:36:22;;;;;;;3.70;3.40;;;;;;;;;;5092812;28;20223;-77
2022/04/01 08:38:49;;;;;;;2.78;2.55;;;;;;;;;;5093004;28;20277;-77
2022/04/01 08:41:19;;;;;;;3.33;3.08;;;;;;;;;;5093191;28;20208;-77
2022/04/01 08:43:48;;;;;;;3.47;3.17;;;;;;;;;;5092712;28;20200;-77
2022/04/01 08:46:17;;;;;;;3.28;3.05;;;;;;;;;;5093002;28;20586;-77
2022/04/01 08:48:45;;;;;;;3.38;3.08;;;;;;;;;;5092629;28;20496;-77
2022/04/01 08:51:14;;;;;;;2.88;2.47;;;;;;;;;;5093062;28;20212;-77
2022/04/01 08:53:44;;;;;;;3.88;3.58;;;;;;;;;;5092681;28;20661;-78
2022/04/01 08:56:13;;;;;;;3.42;3.13;;;;;;;;;;5093578;28;20294;-77
2022/04/01 08:58:41;;;;;;;3.35;3.00;;;;;;;;;;5092764;28;20225;-77
2022/04/01 09:01:08;;;;;;;3.63;3.33;;;;;;;;;;5092146;28;20200;-77
2022/04/01 09:03:38;;;;;;;3.45;3.13;;;;;;;;;;5091473;28;20633;-78
2022/04/01 09:06:07;;;;;;;3.75;3.45;;;;;;;;;;5093644;28;20204;-78
2022/04/01 09:08:37;;;;;;;3.75;3.45;;;;;;;;;;5092845;28;20216;-78
2022/04/01 09:11:07;;;;;;;4.07;3.60;;;;;;;;;;5093310;28;20257;-78
2022/04/01 09:13:47;;;;;;;3.75;2.80;;;;;;;;;;5093378;28;20196;-77
2022/04/01 09:16:26;;;;;;;3.38;3.10;;;;;;;;;;5093225;28;20290;-77
2022/04/01 09:18:57;;;;;;;3.90;3.58;;;;;;;;;;5092810;28;20219;-77
2022/04/01 09:21:30;;;;;;;3.33;3.03;;;;;;;;;;5092781;28;20200;-78
2022/04/01 09:23:59;;;;;;;4.07;3.72;;;;;;;;;;5092263;28;20207;-77
2022/04/01 09:26:32;;;;;;;3.13;2.92;;;;;;;;;;5092721;28;20204;-77
2022/04/01 09:29:01;;;;;;;4.78;4.38;;;;;;;;;;5093195;28;20643;-77
2022/04/01 09:31:33;;;;;;;3.97;3.63;;;;;;;;;;5093792;28;20653;-77
2022/04/01 09:34:06;;;;;;;4.78;4.38;;;;;;;;;;5092018;28;20311;-77
2022/04/01 09:36:36;;;;;;;4.00;3.70;;;;;;;;;;5092440;28;20286;-77
2022/04/01 09:39:07;;;;;;;4.45;4.05;;;;;;;;;;5092110;28;20227;-77
2022/04/01 09:41:38;;;;;;;4.32;4.03;;;;;;;;;;5092346;28;20200;-77
2022/04/01 09:44:11;;;;;;;4.88;4.47;;;;;;;;;;5092617;28;20621;-77
2022/04/01 09:46:43;;;;;;;4.45;4.15;;;;;;;;;;5091601;28;20195;-77
2022/04/01 09:49:14;;;;;;;4.20;3.80;;;;;;;;;;5091604;28;20220;-78
2022/04/01 09:51:44;;;;;;;5.88;4.97;;;;;;;;;;5092091;28;20228;-77
2022/04/01 09:54:12;;;;;;;4.05;3.72;;;;;;;;;;5091936;28;20203;-77
2022/04/01 09:56:43;;;;;;;4.70;4.30;;;;;;;;;;5093662;28;20226;-77
2022/04/01 09:59:12;;;;;;;4.30;3.92;;;;;;;;;;5095939;28;20220;-78
2022/04/01 10:01:41;;;;;;;4.20;3.80;;;;;;;;;;5095928;28;20291;-77
2022/04/01 10:04:09;;;;;;;3.60;3.30;;;;;;;;;;5095891;28;20254;-77
2022/04/01 10:06:39;;;;;;;4.32;4.03;;;;;;;;;;5096428;28;20204;-77
2022/04/01 10:09:08;;;;;;;4.95;4.53;;;;;;;;;;5095618;28;20934;-77
2022/04/01 10:11:37;;;;;;;4.43;4.13;;;;;;;;;;5095857;28;20204;-77
2022/04/01 10:14:10;;;;;;;4.90;4.45;;;;;;;;;;5095682;28;20283;-77
2022/04/01 10:16:39;;;;;;;4.70;4.32;;;;;;;;;;5096285;28;20196;-77
2022/04/01 10:19:13;;;;;;;5.15;4.65;;;;;;;;;;5095661;28;20307;-77
2022/04/01 10:21:45;;;;;;;7.55;4.00;;;;;;;;;;5095670;28;20290;-77
2022/04/01 10:24:22;;;;;;;4.85;4.45;;;;;;;;;;5095681;28;20231;-77
2022/04/01 10:27:08;;;;;;;5.32;3.95;;;;;;;;;;5096212;28;20204;-77
2022/04/01 10:29:36;;;;;;;4.95;4.45;;;;;;;;;;5095606;28;20249;-77
2022/04/01 10:32:24;;;;;;;5.72;5.22;;;;;;;;;;5095216;28;20204;-77
2022/04/01 10:34:54;;;;;;;4.35;3.95;;;;;;;;;;5095564;28;20196;-77
2022/04/01 10:37:25;;;;;;;5.15;4.65;;;;;;;;;;5095947;28;20295;-77
2022/04/01 10:39:54;;;;;;;5.40;4.97;;;;;;;;;;5095837;28;20220;-78
2022/04/01 10:42:27;;;;;;;6.07;4.72;;;;;;;;;;5095318;28;20204;-77
2022/04/01 10:44:57;;;;;;;4.63;4.22;;;;;;;;;;5095088;28;20215;-77
2022/04/01 10:51:36;;;;;;;5.82;5.25;;;;;;;;;;5095044;28;20226;-77
2022/04/01 10:53:45;;;;;;;4.65;4.25;;;;;;;;;;5094577;28;20206;-77
2022/04/01 10:56:37;;;;;;;4.82;4.43;;;;;;;;;;5095290;28;20215;-77
2022/04/01 10:59:15;;;;;;;5.28;4.78;;;;;;;;;;5097398;28;20277;-77
2022/04/01 11:02:05;;;;;;;4.90;4.50;;;;;;;;;;5094675;28;20200;-78
2022/04/01 11:04:36;;;;;;;4.68;4.25;;;;;;;;;;5094871;28;20220;-77
2022/04/01 11:07:06;;;;;;;4.57;4.10;;;;;;;;;;5095958;28;20208;-79
2022/04/01 11:09:45;;;;;;;5.28;4.78;;;;;;;;;;5094752;28;20229;-78
2022/04/01 11:12:38;;;;;;;6.20;5.18;;;;;;;;;;5097073;28;20273;-78
2022/04/01 11:15:17;;;;;;;5.82;5.32;;;;;;;;;;5095224;28;20239;-79
2022/04/01 11:18:09;;;;;;;5.20;4.70;;;;;;;;;;5096090;28;20702;-79
2022/04/01 11:20:39;;;;;;;5.05;4.57;;;;;;;;;;5098518;28;20633;-79
2022/04/01 11:23:12;;;;;;;4.85;4.32;;;;;;;;;;5095058;28;20220;-78
2022/04/01 11:25:57;;;;;;;5.22;4.72;;;;;;;;;;5094814;28;20664;-77
2022/04/01 11:28:30;;;;;;;4.53;4.10;;;;;;;;;;5094935;28;20224;-77
2022/04/01 11:31:16;;;;;;;4.30;3.88;;;;;;;;;;5094952;28;20668;-77
2022/04/01 11:34:01;;;;;;;3.88;3.50;;;;;;;;;;5094489;28;20241;-76
2022/04/01 11:36:30;;;;;;;5.40;3.72;;;;;;;;;;5094733;28;20718;-76
2022/04/01 11:38:59;;;;;;;5.85;5.32;;;;;;;;;;5094513;28;20225;-77
2022/04/01 11:41:28;;;;;;;4.47;4.07;;;;;;;;;;5094544;28;20208;-77
2022/04/01 11:43:56;;;;;;;6.13;4.30;;;;;;;;;;5093975;28;20224;-76
2022/04/01 11:46:23;;;;;;;5.10;4.60;;;;;;;;;;5093895;28;20204;-76
2022/04/01 11:48:50;;;;;;;6.13;5.03;;;;;;;;;;5093574;28;20224;-76
2022/04/01 11:51:20;;;;;;;5.40;4.30;;;;;;;;;;5093574;28;20571;-76
2022/04/01 11:53:50;;;;;;;7.15;5.25;;;;;;;;;;5094138;28;20197;-76
2022/04/01 11:56:19;;;;;;;7.13;5.82;;;;;;;;;;5093549;28;20246;-76
2022/04/01 11:59:00;;;;;;;6.28;4.30;;;;;;;;;;5094051;28;20287;-76
2022/04/01 12:01:30;;;;;;;6.50;5.57;;;;;;;;;;5093720;28;20215;-76
2022/04/01 12:04:09;;;;;;;5.22;4.60;;;;;;;;;;5093876;28;20272;-76
2022/04/01 12:09:30;;;;;;;4.82;4.40;;;;;;;;;;5093125;28;20231;-76
2022/04/01 12:12:01;;;;;;;4.30;3.90;;;;;;;;;;5093203;28;20641;-76
2022/04/01 12:14:31;;;;;;;4.95;4.30;;;;;;;;;;5093645;28;20332;-76
2022/04/01 12:16:59;;;;;;;5.10;4.38;;;;;;;;;;5093567;28;20203;-76
2022/04/01 12:19:30;;;;;;;6.57;4.93;;;;;;;;;;5093093;28;20647;-76
2022/04/01 12:22:00;;;;;;;7.03;5.28;;;;;;;;;;5093058;28;20204;-76
2022/04/01 12:24:28;;;;;;;6.95;5.28;;;;;;;;;;5093481;28;20311;-77
2022/04/01 12:26:56;;;;;;;5.95;4.38;;;;;;;;;;5093139;28;20205;-76
2022/04/01 12:29:26;;;;;;;3.95;3.65;;;;;;;;;;5093428;28;20212;-77
2022/04/01 12:31:56;;;;;;;4.55;4.15;;;;;;;;;;5093173;28;20291;-77
2022/04/01 12:34:25;;;;;;;5.40;4.22;;;;;;;;;;5093285;28;20238;-77
2022/04/01 12:37:00;;;;;;;5.32;4.68;;;;;;;;;;5093498;28;20205;-77
2022/04/01 12:39:29;;;;;;;5.05;4.55;;;;;;;;;;5093470;28;20310;-77
2022/04/01 12:41:59;;;;;;;4.53;3.97;;;;;;;;;;5092800;28;20204;-76
2022/04/01 12:44:28;;;;;;;5.32;4.82;;;;;;;;;;5093202;28;20216;-77
2022/04/01 12:46:59;;;;;;;6.30;3.92;;;;;;;;;;5093055;28;20269;-77
2022/04/01 12:49:30;;;;;;;5.13;4.15;;;;;;;;;;5093241;28;20285;-78
2022/04/01 12:52:00;;;;;;;5.30;4.57;;;;;;;;;;5092903;28;20204;-77
2022/04/01 12:54:36;;;;;;;5.47;4.97;;;;;;;;;;5092999;28;20250;-77
2022/04/01 12:57:06;;;;;;;5.47;4.75;;;;;;;;;;5092748;28;20199;-77
2022/04/01 12:59:36;;;;;;;5.68;4.63;;;;;;;;;;5092680;28;20228;-77
2022/04/01 13:02:07;;;;;;;6.22;4.97;;;;;;;;;;5092889;28;20246;-77
2022/04/01 13:04:44;;;;;;;4.72;4.32;;;;;;;;;;5093110;28;20228;-77
2022/04/01 13:07:16;;;;;;;8.50;5.70;;;;;;;;;;5092872;28;20290;-76
2022/04/01 13:09:49;;;;;;;5.72;4.65;;;;;;;;;;5092764;28;20272;-77
2022/04/01 13:12:17;;;;;;;4.80;4.20;;;;;;;;;;5092691;28;20626;-77
2022/04/01 13:14:44;;;;;;;4.75;4.20;;;;;;;;;;5092842;28;20583;-77
2022/04/01 13:17:16;;;;;;;6.03;5.43;;;;;;;;;;5092384;28;20196;-77
2022/04/01 13:19:45;;;;;;;6.07;5.50;;;;;;;;;;5092310;28;20224;-77
2022/04/01 13:22:14;;;;;;;8.05;6.03;;;;;;;;;;5092056;28;20672;-77
2022/04/01 13:24:44;;;;;;;6.05;5.45;;;;;;;;;;5092354;28;20618;-77
2022/04/01 13:27:13;;;;;;;7.28;4.75;;;;;;;;;;5092245;28;20200;-77
2022/04/01 13:29:41;;;;;;;4.88;4.38;;;;;;;;;;5092342;28;20734;-77
2022/04/01 13:32:10;;;;;;;7.32;4.35;;;;;;;;;;5091239;28;20204;-77
2022/04/01 13:34:40;;;;;;;6.28;4.22;;;;;;;;;;5092641;28;20196;-76
2022/04/01 13:37:10;;;;;;;8.02;5.35;;;;;;;;;;5092259;28;20238;-76
2022/04/01 13:39:38;;;;;;;9.00;6.45;;;;;;;;;;5092286;28;20229;-76
2022/04/01 13:42:07;;;;;;;6.40;5.20;;;;;;;;;;5091847;28;20200;-77
2022/04/01 13:44:35;;;;;;;5.65;5.15;;;;;;;;;;5092389;28;20216;-76
2022/04/01 13:47:04;;;;;;;5.47;4.95;;;;;;;;;;5092080;28;20201;-77
2022/04/01 13:49:31;;;;;;;6.30;4.53;;;;;;;;;;5092045;28;20394;-76
2022/04/01 13:52:02;;;;;;;4.75;4.25;;;;;;;;;;5091900;28;20211;-77
2022/04/01 13:54:30;;;;;;;5.22;4.45;;;;;;;;;;5092110;28;20632;-76
2022/04/01 13:56:59;;;;;;;5.80;4.45;;;;;;;;;;5091868;28;20204;-76
2022/04/01 13:59:27;;;;;;;8.50;3.97;;;;;;;;;;5091580;28;20246;-76
2022/04/01 14:01:54;;;;;;;5.97;4.47;;;;;;;;;;5091645;28;20200;-77
2022/04/01 14:04:22;;;;;;;6.80;4.28;;;;;;;;;;5092060;28;20623;-77
2022/04/01 14:06:50;;;;;;;4.18;3.78;;;;;;;;;;5091788;28;20664;-76
2022/04/01 14:09:20;;;;;;;4.18;3.58;;;;;;;;;;5092012;28;20228;-77
2022/04/01 14:11:47;;;;;;;4.40;3.60;;;;;;;;;;5090550;28;20219;-77
2022/04/01 14:14:15;;;;;;;4.85;3.92;;;;;;;;;;5091490;28;20207;-77
2022/04/01 14:16:42;;;;;;;4.18;3.22;;;;;;;;;;5091845;28;20211;-77
2022/04/01 14:19:10;;;;;;;4.78;4.15;;;;;;;;;;5091795;28;20720;-77
2022/04/01 14:21:39;;;;;;;5.53;3.00;;;;;;;;;;5092132;28;20265;-76
2022/04/01 14:24:08;;;;;;;3.83;3.38;;;;;;;;;;5092054;28;20481;-77
2022/04/01 14:26:36;;;;;;;5.45;2.92;;;;;;;;;;5091277;28;20699;-77
2022/04/01 14:31:58;;;;;;;3.83;3.10;;;;;;;;;;5091531;28;20763;-77
2022/04/01 14:34:27;;;;;;;3.25;2.88;;;;;;;;;;5091968;28;20295;-78
2022/04/01 14:36:56;;;;;;;3.17;2.53;;;;;;;;;;5092309;28;20211;-76
2022/04/01 14:39:23;;;;;;;3.78;2.45;;;;;;;;;;5092194;28;20550;-77
2022/04/01 14:41:52;;;;;;;4.00;2.85;;;;;;;;;;5092753;28;20205;-77
2022/04/01 14:44:20;;;;;;;2.95;2.65;;;;;;;;;;5097261;28;20200;-76
2022/04/01 14:46:49;;;;;;;4.38;3.03;;;;;;;;;;5097433;28;20243;-76
2022/04/01 14:49:17;;;;;;;2.47;2.28;;;;;;;;;;5098242;28;20225;-76
2022/04/01 14:51:45;;;;;;;2.97;2.67;;;;;;;;;;5097239;28;20204;-77
2022/04/01 14:54:13;;;;;;;2.70;2.42;;;;;;;;;;5096393;28;20207;-77
2022/04/01 14:56:40;;;;;;;3.85;2.28;;;;;;;;;;5095545;28;20200;-77
2022/04/01 14:59:09;;;;;;;3.42;2.80;;;;;;;;;;5095569;28;20253;-76
2022/04/01 15:01:36;;;;;;;2.80;2.38;;;;;;;;;;5095197;28;20200;-77
2022/04/01 15:04:05;;;;;;;4.93;2.83;;;;;;;;;;5096439;28;20200;-77
2022/04/01 15:06:32;;;;;;;3.28;2.97;;;;;;;;;;5096262;28;20220;-77
2022/04/01 15:08:59;;;;;;;3.45;2.78;;;;;;;;;;5094404;28;20223;-77
2022/04/01 15:11:26;;;;;;;3.40;2.45;;;;;;;;;;5094586;28;20291;-76
2022/04/01 15:13:54;;;;;;;3.42;2.08;;;;;;;;;;5094413;28;20204;-76
2022/04/01 15:16:22;;;;;;;2.50;2.30;;;;;;;;;;5094575;28;20196;-77
2022/04/01 15:18:50;;;;;;;2.58;2.38;;;;;;;;;;5094659;28;20228;-78